Weather at Burtch Airport [CLOSED]

Public forecast

Using degrees Celsius for public forecast. Weather courtesy of forecast.io.

Closest aviation weather report (METAR) to Burtch Airport

Closest report is John C. Munro Hamilton International Airport, 16.6 nm (30.8 km) ENE.

2024/05/27 20:00 (retrieved 1 hour ago)

CYHM 272000Z 23021G32KT 15SM FEW038 FEW250 24/15 A2948 RMK CU1CI1 SLP982 DENSITY ALT 2500FT

Closest aviation forecast (TAF) to Burtch Airport

Closest forecast is John C. Munro Hamilton International Airport, 16.6 nm (30.8 km) ENE.

2024/05/27 18:42 (retrieved 2 hours ago)

TAF TAF CYHM 271740Z 2718/2818 22015G25KT P6SM BKN025 TEMPO 2718/2722 5SM -SHRA BR BKN015 PROB30 2718/2722 VRB20G30KT 2SM +TSRA BR BKN008 OVC020CB FM272200 24020G30KT P6SM BKN025 TEMPO 2722/2803 BKN015 BECMG 2722/2724 24015G25KT FM280300 24012G22KT 6SM -DZ BR BKN008 OVC015 BECMG 2806/2808 28010KT FM281200 28010G20KT P6SM BKN015 OVC060 RMK NXT FCST BY 280000Z